This is the latest recevied weather packets stored in our database for station/object N1SU-13. If no packets are shown the sender has not sent any weather packets the latest 10 day(s).
| Time | Temp. | Humidity | Pressure | Rain* | Wind** | Luminosity | Snow |
|---|---|---|---|---|---|---|---|
| 1777592088 | 21.67° C | 42% | 1015.2 hPa | - | - | - | - |
| 1777591485 | 21.67° C | 44% | 1015.3 hPa | - | - | - | - |
| 1777590838 | 21.67° C | 45% | 1015.6 hPa | - | - | - | - |
| 1777590140 | 21.11° C | 49% | 1015.7 hPa | - | - | - | - |
| 1777589497 | 21.11° C | 53% | 1015.8 hPa | - | - | - | - |
| 1777588814 | 20.56° C | 53% | 1016 hPa | - | - | - | - |
| 1777588202 | 20.56° C | 54% | 1016 hPa | - | - | - | - |
| 1777587522 | 20.56° C | 54% | 1016 hPa | - | - | - | - |
| 1777586906 | 20° C | 54% | 1016.1 hPa | - | - | - | - |
| 1777586287 | 20.56° C | 55% | 1016.2 hPa | - | - | - | - |
| 1777585688 | 20.56° C | 56% | 1016.1 hPa | - | - | - | - |
| 1777585417 | 20.56° C | 55% | 1016.2 hPa | - | - | - | - |
| 1777585040 | 20.56° C | 56% | 1016.3 hPa | - | - | - | - |
| 1777584365 | 20.56° C | 55% | 1016.2 hPa | - | - | - | - |
| 1777583666 | 20.56° C | 56% | 1016.4 hPa | - | - | - | - |
| 1777582969 | 20° C | 59% | 1016.5 hPa | - | - | - | - |
| 1777582334 | 15.56° C | 60% | 1017.4 hPa | - | - | - | - |
| 1777581741 | 16.11° C | 59% | 1017 hPa | - | - | - | - |
| 1777581171 | 19.44° C | 59% | 1016.7 hPa | - | - | - | - |
| 1777580602 | 19.44° C | 59% | 1016.9 hPa | - | - | - | - |
| 1777580002 | 18.89° C | 60% | 1017.1 hPa | - | - | - | - |
| 1777579382 | 18.89° C | 61% | 1017.3 hPa | - | - | - | - |
| 1777578717 | 18.33° C | 62% | 1017.4 hPa | - | - | - | - |
| 1777578081 | 18.33° C | 63% | 1017.6 hPa | - | - | - | - |
| 1777577501 | 17.78° C | 64% | 1017.8 hPa | - | - | - | - |
* Rain since midnight (hover to see other rain measurements)
** Current wind speed in m/s (hover to see current wind gust speed)